sensor_id;sensor_type;location;lat;lon;timestamp;P1;durP1;ratioP1;P2;durP2;ratioP2
29500;SDS011;16450;50.288;10.966;2024-01-30T00:01:39;13.80;;;7.70;;
29500;SDS011;16450;50.288;10.966;2024-01-30T00:04:40;13.90;;;7.87;;
29500;SDS011;16450;50.288;10.966;2024-01-30T00:07:42;13.33;;;7.90;;
29500;SDS011;16450;50.288;10.966;2024-01-30T00:10:44;13.40;;;7.70;;
29500;SDS011;16450;50.288;10.966;2024-01-30T00:13:46;14.23;;;7.93;;
29500;SDS011;16450;50.288;10.966;2024-01-30T00:16:48;15.90;;;8.40;;
29500;SDS011;16450;50.288;10.966;2024-01-30T00:19:50;14.80;;;7.43;;
29500;SDS011;16450;50.288;10.966;2024-01-30T00:22:52;15.13;;;7.23;;
29500;SDS011;16450;50.288;10.966;2024-01-30T00:25:54;13.63;;;8.00;;
29500;SDS011;16450;50.288;10.966;2024-01-30T00:28:56;13.30;;;7.90;;
29500;SDS011;16450;50.288;10.966;2024-01-30T00:31:59;15.40;;;7.53;;
29500;SDS011;16450;50.288;10.966;2024-01-30T00:35:01;14.27;;;8.00;;
29500;SDS011;16450;50.288;10.966;2024-01-30T00:38:03;18.13;;;8.40;;
29500;SDS011;16450;50.288;10.966;2024-01-30T00:41:05;14.97;;;7.50;;
29500;SDS011;16450;50.288;10.966;2024-01-30T00:44:07;14.30;;;7.10;;
29500;SDS011;16450;50.288;10.966;2024-01-30T00:47:09;15.00;;;7.80;;
29500;SDS011;16450;50.288;10.966;2024-01-30T00:50:11;15.70;;;7.57;;
29500;SDS011;16450;50.288;10.966;2024-01-30T00:53:13;13.00;;;7.70;;
29500;SDS011;16450;50.288;10.966;2024-01-30T00:56:15;12.27;;;7.30;;
29500;SDS011;16450;50.288;10.966;2024-01-30T00:59:19;16.73;;;7.47;;
29500;SDS011;16450;50.288;10.966;2024-01-30T01:02:21;14.07;;;7.07;;
29500;SDS011;16450;50.288;10.966;2024-01-30T01:05:23;12.70;;;7.00;;
29500;SDS011;16450;50.288;10.966;2024-01-30T01:08:25;14.50;;;7.10;;
29500;SDS011;16450;50.288;10.966;2024-01-30T01:11:28;13.13;;;7.30;;
29500;SDS011;16450;50.288;10.966;2024-01-30T01:14:30;13.93;;;7.07;;
29500;SDS011;16450;50.288;10.966;2024-01-30T01:17:32;12.50;;;6.90;;
29500;SDS011;16450;50.288;10.966;2024-01-30T01:20:34;14.43;;;7.63;;
29500;SDS011;16450;50.288;10.966;2024-01-30T01:23:36;13.17;;;7.63;;
29500;SDS011;16450;50.288;10.966;2024-01-30T01:26:38;14.73;;;7.27;;
29500;SDS011;16450;50.288;10.966;2024-01-30T01:29:40;14.87;;;7.37;;
29500;SDS011;16450;50.288;10.966;2024-01-30T01:32:42;12.77;;;6.80;;
29500;SDS011;16450;50.288;10.966;2024-01-30T01:35:50;14.03;;;6.57;;
29500;SDS011;16450;50.288;10.966;2024-01-30T01:38:52;12.83;;;6.93;;
29500;SDS011;16450;50.288;10.966;2024-01-30T01:41:54;11.80;;;6.37;;
29500;SDS011;16450;50.288;10.966;2024-01-30T01:44:56;13.30;;;6.67;;
29500;SDS011;16450;50.288;10.966;2024-01-30T01:47:58;10.83;;;6.13;;
29500;SDS011;16450;50.288;10.966;2024-01-30T01:51:00;12.17;;;6.30;;
29500;SDS011;16450;50.288;10.966;2024-01-30T01:54:03;14.40;;;6.27;;
29500;SDS011;16450;50.288;10.966;2024-01-30T01:57:06;15.50;;;7.00;;
29500;SDS011;16450;50.288;10.966;2024-01-30T02:00:09;9.80;;;5.63;;
29500;SDS011;16450;50.288;10.966;2024-01-30T02:03:12;12.53;;;6.63;;
29500;SDS011;16450;50.288;10.966;2024-01-30T02:06:17;11.43;;;6.67;;
29500;SDS011;16450;50.288;10.966;2024-01-30T02:09:20;13.20;;;6.73;;
29500;SDS011;16450;50.288;10.966;2024-01-30T02:12:21;10.80;;;6.13;;
29500;SDS011;16450;50.288;10.966;2024-01-30T02:15:23;11.37;;;6.67;;
29500;SDS011;16450;50.288;10.966;2024-01-30T02:18:25;11.17;;;5.90;;
29500;SDS011;16450;50.288;10.966;2024-01-30T02:21:27;11.17;;;5.80;;
29500;SDS011;16450;50.288;10.966;2024-01-30T02:24:29;11.33;;;6.67;;
29500;SDS011;16450;50.288;10.966;2024-01-30T02:27:31;12.37;;;6.33;;
29500;SDS011;16450;50.288;10.966;2024-01-30T02:30:33;12.80;;;6.73;;
29500;SDS011;16450;50.288;10.966;2024-01-30T02:33:35;10.87;;;6.20;;
29500;SDS011;16450;50.288;10.966;2024-01-30T02:36:37;13.57;;;6.67;;
29500;SDS011;16450;50.288;10.966;2024-01-30T02:39:39;11.43;;;6.67;;
29500;SDS011;16450;50.288;10.966;2024-01-30T02:42:41;11.87;;;6.27;;
29500;SDS011;16450;50.288;10.966;2024-01-30T02:45:43;12.10;;;6.20;;
29500;SDS011;16450;50.288;10.966;2024-01-30T02:48:45;12.83;;;6.53;;
29500;SDS011;16450;50.288;10.966;2024-01-30T02:51:47;12.07;;;6.97;;
29500;SDS011;16450;50.288;10.966;2024-01-30T02:54:49;11.77;;;6.57;;
29500;SDS011;16450;50.288;10.966;2024-01-30T02:57:51;11.63;;;6.37;;
29500;SDS011;16450;50.288;10.966;2024-01-30T03:00:53;13.43;;;6.67;;
29500;SDS011;16450;50.288;10.966;2024-01-30T03:03:55;10.47;;;6.17;;
29500;SDS011;16450;50.288;10.966;2024-01-30T03:06:57;11.60;;;6.07;;
29500;SDS011;16450;50.288;10.966;2024-01-30T03:09:59;12.17;;;6.50;;
29500;SDS011;16450;50.288;10.966;2024-01-30T03:13:01;11.83;;;6.20;;
29500;SDS011;16450;50.288;10.966;2024-01-30T03:16:03;12.33;;;5.87;;
29500;SDS011;16450;50.288;10.966;2024-01-30T03:19:06;13.07;;;6.33;;
29500;SDS011;16450;50.288;10.966;2024-01-30T03:22:12;13.30;;;6.20;;
29500;SDS011;16450;50.288;10.966;2024-01-30T03:25:14;11.60;;;6.53;;
29500;SDS011;16450;50.288;10.966;2024-01-30T03:28:16;11.17;;;6.17;;
29500;SDS011;16450;50.288;10.966;2024-01-30T03:31:18;12.43;;;6.60;;
29500;SDS011;16450;50.288;10.966;2024-01-30T03:34:20;11.23;;;6.50;;
29500;SDS011;16450;50.288;10.966;2024-01-30T03:37:22;13.17;;;6.43;;
29500;SDS011;16450;50.288;10.966;2024-01-30T03:40:24;12.77;;;6.50;;
29500;SDS011;16450;50.288;10.966;2024-01-30T03:43:26;10.30;;;6.40;;
29500;SDS011;16450;50.288;10.966;2024-01-30T03:46:28;11.90;;;5.80;;
29500;SDS011;16450;50.288;10.966;2024-01-30T03:49:30;10.53;;;5.60;;
29500;SDS011;16450;50.288;10.966;2024-01-30T03:52:32;10.97;;;6.00;;
29500;SDS011;16450;50.288;10.966;2024-01-30T03:55:34;9.43;;;6.13;;
29500;SDS011;16450;50.288;10.966;2024-01-30T03:58:36;11.73;;;6.77;;
29500;SDS011;16450;50.288;10.966;2024-01-30T04:01:38;14.10;;;6.40;;
29500;SDS011;16450;50.288;10.966;2024-01-30T04:04:40;13.33;;;6.17;;
29500;SDS011;16450;50.288;10.966;2024-01-30T04:07:42;9.37;;;6.10;;
29500;SDS011;16450;50.288;10.966;2024-01-30T04:10:44;12.73;;;6.10;;
29500;SDS011;16450;50.288;10.966;2024-01-30T04:13:47;10.57;;;6.00;;
29500;SDS011;16450;50.288;10.966;2024-01-30T04:16:50;11.00;;;6.10;;
29500;SDS011;16450;50.288;10.966;2024-01-30T04:19:52;11.17;;;5.97;;
29500;SDS011;16450;50.288;10.966;2024-01-30T04:22:54;10.63;;;5.80;;
29500;SDS011;16450;50.288;10.966;2024-01-30T04:25:56;12.10;;;6.23;;
29500;SDS011;16450;50.288;10.966;2024-01-30T04:28:58;10.17;;;5.73;;
29500;SDS011;16450;50.288;10.966;2024-01-30T04:31:59;11.20;;;5.90;;
29500;SDS011;16450;50.288;10.966;2024-01-30T04:35:01;11.23;;;5.87;;
29500;SDS011;16450;50.288;10.966;2024-01-30T04:38:08;11.93;;;6.10;;
29500;SDS011;16450;50.288;10.966;2024-01-30T04:41:09;14.07;;;6.60;;
29500;SDS011;16450;50.288;10.966;2024-01-30T04:44:11;13.20;;;6.10;;
29500;SDS011;16450;50.288;10.966;2024-01-30T04:47:13;13.73;;;6.83;;
29500;SDS011;16450;50.288;10.966;2024-01-30T04:50:15;12.33;;;6.00;;
29500;SDS011;16450;50.288;10.966;2024-01-30T04:53:17;9.97;;;5.83;;
29500;SDS011;16450;50.288;10.966;2024-01-30T04:56:20;10.33;;;6.23;;
29500;SDS011;16450;50.288;10.966;2024-01-30T04:59:22;11.37;;;5.77;;
29500;SDS011;16450;50.288;10.966;2024-01-30T05:02:24;12.60;;;6.23;;
29500;SDS011;16450;50.288;10.966;2024-01-30T05:05:26;9.80;;;5.93;;
29500;SDS011;16450;50.288;10.966;2024-01-30T05:08:28;10.47;;;6.03;;
29500;SDS011;16450;50.288;10.966;2024-01-30T05:11:30;13.10;;;6.63;;
29500;SDS011;16450;50.288;10.966;2024-01-30T05:14:32;13.97;;;6.67;;
29500;SDS011;16450;50.288;10.966;2024-01-30T05:17:34;12.90;;;7.10;;
29500;SDS011;16450;50.288;10.966;2024-01-30T05:20:37;12.57;;;6.80;;
29500;SDS011;16450;50.288;10.966;2024-01-30T05:23:39;11.43;;;6.33;;
29500;SDS011;16450;50.288;10.966;2024-01-30T05:26:43;10.27;;;6.40;;
29500;SDS011;16450;50.288;10.966;2024-01-30T05:29:44;12.40;;;6.70;;
29500;SDS011;16450;50.288;10.966;2024-01-30T05:32:47;12.17;;;6.40;;
29500;SDS011;16450;50.288;10.966;2024-01-30T05:35:49;12.77;;;6.63;;
29500;SDS011;16450;50.288;10.966;2024-01-30T05:38:51;11.27;;;5.80;;
29500;SDS011;16450;50.288;10.966;2024-01-30T05:41:52;12.63;;;6.53;;
29500;SDS011;16450;50.288;10.966;2024-01-30T05:44:54;10.03;;;6.10;;
29500;SDS011;16450;50.288;10.966;2024-01-30T05:47:56;11.50;;;6.50;;
29500;SDS011;16450;50.288;10.966;2024-01-30T05:50:58;12.53;;;6.23;;
29500;SDS011;16450;50.288;10.966;2024-01-30T05:54:01;11.10;;;6.00;;
29500;SDS011;16450;50.288;10.966;2024-01-30T05:57:05;14.13;;;6.20;;
29500;SDS011;16450;50.288;10.966;2024-01-30T06:00:07;12.27;;;6.30;;
29500;SDS011;16450;50.288;10.966;2024-01-30T06:03:10;12.03;;;6.60;;
29500;SDS011;16450;50.288;10.966;2024-01-30T06:06:11;13.17;;;7.17;;
29500;SDS011;16450;50.288;10.966;2024-01-30T06:09:13;15.00;;;6.63;;
29500;SDS011;16450;50.288;10.966;2024-01-30T06:12:15;12.73;;;6.60;;
29500;SDS011;16450;50.288;10.966;2024-01-30T06:15:17;12.57;;;6.70;;
29500;SDS011;16450;50.288;10.966;2024-01-30T06:18:19;11.77;;;6.63;;
29500;SDS011;16450;50.288;10.966;2024-01-30T06:21:23;10.47;;;6.30;;
29500;SDS011;16450;50.288;10.966;2024-01-30T06:24:25;13.33;;;6.90;;
29500;SDS011;16450;50.288;10.966;2024-01-30T06:27:27;14.03;;;7.07;;
29500;SDS011;16450;50.288;10.966;2024-01-30T06:30:28;14.37;;;7.07;;
29500;SDS011;16450;50.288;10.966;2024-01-30T06:33:31;13.30;;;7.23;;
29500;SDS011;16450;50.288;10.966;2024-01-30T06:36:33;13.40;;;7.10;;
29500;SDS011;16450;50.288;10.966;2024-01-30T06:39:35;13.60;;;7.37;;
29500;SDS011;16450;50.288;10.966;2024-01-30T06:42:37;12.53;;;7.40;;
29500;SDS011;16450;50.288;10.966;2024-01-30T06:45:39;14.73;;;8.33;;
29500;SDS011;16450;50.288;10.966;2024-01-30T06:48:41;14.60;;;7.70;;
29500;SDS011;16450;50.288;10.966;2024-01-30T06:51:46;19.27;;;8.53;;
29500;SDS011;16450;50.288;10.966;2024-01-30T06:54:48;13.93;;;7.47;;
29500;SDS011;16450;50.288;10.966;2024-01-30T06:57:50;12.90;;;6.63;;
29500;SDS011;16450;50.288;10.966;2024-01-30T07:00:52;13.67;;;7.13;;
29500;SDS011;16450;50.288;10.966;2024-01-30T07:03:54;14.70;;;7.57;;
29500;SDS011;16450;50.288;10.966;2024-01-30T07:06:56;11.27;;;6.40;;
29500;SDS011;16450;50.288;10.966;2024-01-30T07:09:59;12.37;;;7.10;;
29500;SDS011;16450;50.288;10.966;2024-01-30T07:13:01;14.80;;;7.10;;
29500;SDS011;16450;50.288;10.966;2024-01-30T07:16:03;15.63;;;8.50;;
29500;SDS011;16450;50.288;10.966;2024-01-30T07:19:05;13.63;;;7.73;;
29500;SDS011;16450;50.288;10.966;2024-01-30T07:22:07;12.80;;;6.93;;
29500;SDS011;16450;50.288;10.966;2024-01-30T07:25:09;13.47;;;7.47;;
29500;SDS011;16450;50.288;10.966;2024-01-30T07:28:11;15.20;;;7.67;;
29500;SDS011;16450;50.288;10.966;2024-01-30T07:31:14;14.47;;;7.40;;
29500;SDS011;16450;50.288;10.966;2024-01-30T07:34:17;11.63;;;7.30;;
29500;SDS011;16450;50.288;10.966;2024-01-30T07:37:19;16.70;;;8.53;;
29500;SDS011;16450;50.288;10.966;2024-01-30T07:40:21;15.37;;;8.27;;
29500;SDS011;16450;50.288;10.966;2024-01-30T07:43:23;22.30;;;12.27;;
29500;SDS011;16450;50.288;10.966;2024-01-30T07:46:26;19.13;;;11.20;;
29500;SDS011;16450;50.288;10.966;2024-01-30T07:49:28;15.93;;;8.80;;
29500;SDS011;16450;50.288;10.966;2024-01-30T07:52:30;22.00;;;13.20;;
29500;SDS011;16450;50.288;10.966;2024-01-30T07:55:32;16.97;;;9.33;;
29500;SDS011;16450;50.288;10.966;2024-01-30T07:58:34;15.40;;;9.13;;
29500;SDS011;16450;50.288;10.966;2024-01-30T08:01:36;15.13;;;9.30;;
29500;SDS011;16450;50.288;10.966;2024-01-30T08:04:39;19.47;;;12.23;;
29500;SDS011;16450;50.288;10.966;2024-01-30T08:07:41;23.90;;;14.07;;
29500;SDS011;16450;50.288;10.966;2024-01-30T08:10:47;18.50;;;10.20;;
29500;SDS011;16450;50.288;10.966;2024-01-30T08:13:50;19.10;;;10.80;;
29500;SDS011;16450;50.288;10.966;2024-01-30T08:16:52;18.70;;;10.90;;
29500;SDS011;16450;50.288;10.966;2024-01-30T08:19:54;22.97;;;12.03;;
29500;SDS011;16450;50.288;10.966;2024-01-30T08:22:56;21.90;;;12.07;;
29500;SDS011;16450;50.288;10.966;2024-01-30T08:25:58;18.23;;;9.77;;
29500;SDS011;16450;50.288;10.966;2024-01-30T08:29:00;16.47;;;9.73;;
29500;SDS011;16450;50.288;10.966;2024-01-30T08:32:04;19.13;;;9.90;;
29500;SDS011;16450;50.288;10.966;2024-01-30T08:35:06;18.93;;;10.17;;
29500;SDS011;16450;50.288;10.966;2024-01-30T08:38:10;21.00;;;10.80;;
29500;SDS011;16450;50.288;10.966;2024-01-30T08:41:13;22.70;;;11.53;;
29500;SDS011;16450;50.288;10.966;2024-01-30T08:44:16;19.17;;;11.13;;
29500;SDS011;16450;50.288;10.966;2024-01-30T08:47:18;19.50;;;9.87;;
29500;SDS011;16450;50.288;10.966;2024-01-30T08:50:20;16.27;;;9.70;;
29500;SDS011;16450;50.288;10.966;2024-01-30T08:53:22;16.67;;;10.33;;
29500;SDS011;16450;50.288;10.966;2024-01-30T08:56:24;19.60;;;10.07;;
29500;SDS011;16450;50.288;10.966;2024-01-30T08:59:26;17.07;;;9.20;;
29500;SDS011;16450;50.288;10.966;2024-01-30T09:02:28;21.20;;;10.47;;
29500;SDS011;16450;50.288;10.966;2024-01-30T09:05:30;21.83;;;10.80;;
29500;SDS011;16450;50.288;10.966;2024-01-30T09:08:32;20.50;;;10.10;;
29500;SDS011;16450;50.288;10.966;2024-01-30T09:11:35;21.10;;;10.70;;
29500;SDS011;16450;50.288;10.966;2024-01-30T09:14:37;21.77;;;11.60;;
29500;SDS011;16450;50.288;10.966;2024-01-30T09:17:40;20.47;;;12.03;;
29500;SDS011;16450;50.288;10.966;2024-01-30T09:20:42;22.80;;;12.07;;
29500;SDS011;16450;50.288;10.966;2024-01-30T09:23:44;19.70;;;10.90;;
29500;SDS011;16450;50.288;10.966;2024-01-30T09:26:46;18.77;;;11.40;;
29500;SDS011;16450;50.288;10.966;2024-01-30T09:29:48;25.70;;;14.07;;
29500;SDS011;16450;50.288;10.966;2024-01-30T09:32:50;20.63;;;12.70;;
29500;SDS011;16450;50.288;10.966;2024-01-30T09:35:52;26.73;;;14.53;;
29500;SDS011;16450;50.288;10.966;2024-01-30T09:38:54;26.93;;;13.77;;
29500;SDS011;16450;50.288;10.966;2024-01-30T09:42:05;22.93;;;13.67;;
29500;SDS011;16450;50.288;10.966;2024-01-30T09:45:13;22.13;;;13.23;;
29500;SDS011;16450;50.288;10.966;2024-01-30T09:48:16;23.70;;;13.70;;
29500;SDS011;16450;50.288;10.966;2024-01-30T09:51:18;22.73;;;13.00;;
29500;SDS011;16450;50.288;10.966;2024-01-30T09:54:21;19.17;;;11.73;;
29500;SDS011;16450;50.288;10.966;2024-01-30T09:57:23;21.07;;;13.10;;
29500;SDS011;16450;50.288;10.966;2024-01-30T10:00:27;22.23;;;13.37;;
29500;SDS011;16450;50.288;10.966;2024-01-30T10:03:29;21.80;;;12.30;;
29500;SDS011;16450;50.288;10.966;2024-01-30T10:06:32;22.30;;;12.67;;
29500;SDS011;16450;50.288;10.966;2024-01-30T10:09:34;25.67;;;13.17;;
29500;SDS011;16450;50.288;10.966;2024-01-30T10:12:36;25.40;;;14.77;;
29500;SDS011;16450;50.288;10.966;2024-01-30T10:15:41;26.83;;;17.50;;
29500;SDS011;16450;50.288;10.966;2024-01-30T10:18:43;26.37;;;15.90;;
29500;SDS011;16450;50.288;10.966;2024-01-30T10:21:45;21.63;;;14.10;;
29500;SDS011;16450;50.288;10.966;2024-01-30T10:24:48;23.90;;;14.20;;
29500;SDS011;16450;50.288;10.966;2024-01-30T10:27:54;24.93;;;14.27;;
29500;SDS011;16450;50.288;10.966;2024-01-30T10:30:59;23.40;;;13.27;;
29500;SDS011;16450;50.288;10.966;2024-01-30T10:34:06;22.23;;;13.00;;
29500;SDS011;16450;50.288;10.966;2024-01-30T10:37:20;23.30;;;13.67;;
29500;SDS011;16450;50.288;10.966;2024-01-30T10:40:27;25.07;;;14.20;;
29500;SDS011;16450;50.288;10.966;2024-01-30T10:43:31;26.47;;;14.00;;
29500;SDS011;16450;50.288;10.966;2024-01-30T10:46:37;25.43;;;14.40;;
29500;SDS011;16450;50.288;10.966;2024-01-30T10:49:41;22.17;;;13.23;;
29500;SDS011;16450;50.288;10.966;2024-01-30T10:52:44;21.83;;;14.07;;
29500;SDS011;16450;50.288;10.966;2024-01-30T10:55:46;26.70;;;13.53;;
29500;SDS011;16450;50.288;10.966;2024-01-30T10:58:50;26.90;;;15.07;;
29500;SDS011;16450;50.288;10.966;2024-01-30T11:01:59;24.60;;;14.40;;
29500;SDS011;16450;50.288;10.966;2024-01-30T11:05:01;25.40;;;14.80;;
29500;SDS011;16450;50.288;10.966;2024-01-30T11:08:10;26.63;;;16.57;;
29500;SDS011;16450;50.288;10.966;2024-01-30T11:11:16;25.53;;;14.87;;
29500;SDS011;16450;50.288;10.966;2024-01-30T11:14:31;21.87;;;14.10;;
29500;SDS011;16450;50.288;10.966;2024-01-30T11:20:51;61.73;;;30.67;;
29500;SDS011;16450;50.288;10.966;2024-01-30T11:23:54;30.50;;;15.70;;
29500;SDS011;16450;50.288;10.966;2024-01-30T11:26:56;24.83;;;14.30;;
29500;SDS011;16450;50.288;10.966;2024-01-30T11:30:02;25.50;;;15.33;;
29500;SDS011;16450;50.288;10.966;2024-01-30T11:33:11;26.60;;;14.93;;
29500;SDS011;16450;50.288;10.966;2024-01-30T11:36:14;23.90;;;14.20;;
29500;SDS011;16450;50.288;10.966;2024-01-30T11:39:19;24.70;;;14.97;;
29500;SDS011;16450;50.288;10.966;2024-01-30T11:42:22;26.70;;;14.13;;
29500;SDS011;16450;50.288;10.966;2024-01-30T11:45:30;27.53;;;15.20;;
29500;SDS011;16450;50.288;10.966;2024-01-30T11:48:32;23.97;;;15.03;;
29500;SDS011;16450;50.288;10.966;2024-01-30T11:51:35;25.00;;;14.50;;
29500;SDS011;16450;50.288;10.966;2024-01-30T11:54:39;21.57;;;13.83;;
29500;SDS011;16450;50.288;10.966;2024-01-30T11:57:41;21.67;;;13.07;;
29500;SDS011;16450;50.288;10.966;2024-01-30T12:00:52;26.10;;;15.00;;
29500;SDS011;16450;50.288;10.966;2024-01-30T12:03:58;26.10;;;14.70;;
29500;SDS011;16450;50.288;10.966;2024-01-30T12:07:01;27.00;;;15.20;;
29500;SDS011;16450;50.288;10.966;2024-01-30T12:10:05;25.57;;;15.57;;
29500;SDS011;16450;50.288;10.966;2024-01-30T12:13:07;24.93;;;15.13;;
29500;SDS011;16450;50.288;10.966;2024-01-30T12:16:09;25.67;;;14.60;;
29500;SDS011;16450;50.288;10.966;2024-01-30T12:19:11;22.83;;;14.97;;
29500;SDS011;16450;50.288;10.966;2024-01-30T12:22:22;24.97;;;14.80;;
29500;SDS011;16450;50.288;10.966;2024-01-30T12:25:24;26.40;;;15.03;;
29500;SDS011;16450;50.288;10.966;2024-01-30T12:28:26;27.20;;;15.00;;
29500;SDS011;16450;50.288;10.966;2024-01-30T12:31:28;29.60;;;16.53;;
29500;SDS011;16450;50.288;10.966;2024-01-30T12:34:30;24.80;;;15.03;;
29500;SDS011;16450;50.288;10.966;2024-01-30T12:37:39;28.70;;;16.23;;
29500;SDS011;16450;50.288;10.966;2024-01-30T12:40:42;29.07;;;17.07;;
29500;SDS011;16450;50.288;10.966;2024-01-30T12:43:45;25.33;;;15.37;;
29500;SDS011;16450;50.288;10.966;2024-01-30T12:46:49;24.67;;;15.73;;
29500;SDS011;16450;50.288;10.966;2024-01-30T12:49:51;25.33;;;16.03;;
29500;SDS011;16450;50.288;10.966;2024-01-30T12:52:56;26.10;;;15.37;;
29500;SDS011;16450;50.288;10.966;2024-01-30T12:55:58;26.23;;;14.83;;
29500;SDS011;16450;50.288;10.966;2024-01-30T12:59:00;27.43;;;15.47;;
29500;SDS011;16450;50.288;10.966;2024-01-30T13:02:01;27.30;;;15.53;;
29500;SDS011;16450;50.288;10.966;2024-01-30T13:05:04;31.37;;;15.90;;
29500;SDS011;16450;50.288;10.966;2024-01-30T13:08:07;26.70;;;14.50;;
29500;SDS011;16450;50.288;10.966;2024-01-30T13:11:09;24.27;;;14.57;;
29500;SDS011;16450;50.288;10.966;2024-01-30T13:14:21;28.57;;;15.30;;
29500;SDS011;16450;50.288;10.966;2024-01-30T13:17:23;25.23;;;15.40;;
29500;SDS011;16450;50.288;10.966;2024-01-30T13:20:25;29.60;;;16.27;;
29500;SDS011;16450;50.288;10.966;2024-01-30T13:23:27;25.13;;;15.37;;
29500;SDS011;16450;50.288;10.966;2024-01-30T13:26:29;28.13;;;16.23;;
29500;SDS011;16450;50.288;10.966;2024-01-30T13:29:32;26.93;;;16.37;;
29500;SDS011;16450;50.288;10.966;2024-01-30T13:32:34;25.67;;;15.87;;
29500;SDS011;16450;50.288;10.966;2024-01-30T13:35:37;28.27;;;15.43;;
29500;SDS011;16450;50.288;10.966;2024-01-30T13:38:39;24.93;;;15.77;;
29500;SDS011;16450;50.288;10.966;2024-01-30T13:41:42;31.93;;;15.83;;
29500;SDS011;16450;50.288;10.966;2024-01-30T13:44:43;23.83;;;15.60;;
29500;SDS011;16450;50.288;10.966;2024-01-30T13:47:45;27.37;;;16.13;;
29500;SDS011;16450;50.288;10.966;2024-01-30T13:50:47;25.47;;;16.20;;
29500;SDS011;16450;50.288;10.966;2024-01-30T13:53:50;26.23;;;15.60;;
29500;SDS011;16450;50.288;10.966;2024-01-30T13:56:52;23.30;;;14.00;;
29500;SDS011;16450;50.288;10.966;2024-01-30T13:59:53;25.73;;;15.30;;
29500;SDS011;16450;50.288;10.966;2024-01-30T14:02:56;23.53;;;14.77;;
29500;SDS011;16450;50.288;10.966;2024-01-30T14:05:59;23.67;;;15.27;;
29500;SDS011;16450;50.288;10.966;2024-01-30T14:09:01;24.13;;;15.03;;
29500;SDS011;16450;50.288;10.966;2024-01-30T14:12:09;24.33;;;15.60;;
29500;SDS011;16450;50.288;10.966;2024-01-30T14:15:11;25.47;;;15.33;;
29500;SDS011;16450;50.288;10.966;2024-01-30T14:18:27;26.40;;;16.17;;
29500;SDS011;16450;50.288;10.966;2024-01-30T14:21:29;29.03;;;16.30;;
29500;SDS011;16450;50.288;10.966;2024-01-30T14:24:31;25.40;;;15.83;;
29500;SDS011;16450;50.288;10.966;2024-01-30T14:27:34;26.60;;;15.90;;
29500;SDS011;16450;50.288;10.966;2024-01-30T14:30:36;28.50;;;16.93;;
29500;SDS011;16450;50.288;10.966;2024-01-30T14:33:38;27.40;;;15.63;;
29500;SDS011;16450;50.288;10.966;2024-01-30T14:36:41;25.37;;;15.90;;
29500;SDS011;16450;50.288;10.966;2024-01-30T14:39:43;24.77;;;15.43;;
29500;SDS011;16450;50.288;10.966;2024-01-30T14:42:45;27.87;;;16.37;;
29500;SDS011;16450;50.288;10.966;2024-01-30T14:45:47;28.77;;;16.97;;
29500;SDS011;16450;50.288;10.966;2024-01-30T14:48:51;27.93;;;16.70;;
29500;SDS011;16450;50.288;10.966;2024-01-30T14:51:53;23.67;;;14.87;;
29500;SDS011;16450;50.288;10.966;2024-01-30T14:54:55;27.40;;;16.33;;
29500;SDS011;16450;50.288;10.966;2024-01-30T14:57:57;30.23;;;16.17;;
29500;SDS011;16450;50.288;10.966;2024-01-30T15:01:00;26.60;;;15.57;;
29500;SDS011;16450;50.288;10.966;2024-01-30T15:04:02;24.23;;;16.73;;
29500;SDS011;16450;50.288;10.966;2024-01-30T15:07:05;32.27;;;19.77;;
29500;SDS011;16450;50.288;10.966;2024-01-30T15:10:07;26.30;;;16.30;;
29500;SDS011;16450;50.288;10.966;2024-01-30T15:13:10;29.43;;;17.23;;
29500;SDS011;16450;50.288;10.966;2024-01-30T15:16:13;26.60;;;16.17;;
29500;SDS011;16450;50.288;10.966;2024-01-30T15:19:16;29.47;;;16.70;;
29500;SDS011;16450;50.288;10.966;2024-01-30T15:22:18;24.97;;;15.43;;
29500;SDS011;16450;50.288;10.966;2024-01-30T15:25:20;27.27;;;16.90;;
29500;SDS011;16450;50.288;10.966;2024-01-30T15:28:34;28.57;;;16.67;;
29500;SDS011;16450;50.288;10.966;2024-01-30T15:31:38;29.40;;;15.87;;
29500;SDS011;16450;50.288;10.966;2024-01-30T15:34:40;26.73;;;16.00;;
29500;SDS011;16450;50.288;10.966;2024-01-30T15:37:42;27.77;;;17.07;;
29500;SDS011;16450;50.288;10.966;2024-01-30T15:40:43;24.47;;;16.63;;
29500;SDS011;16450;50.288;10.966;2024-01-30T15:43:45;29.93;;;18.23;;
29500;SDS011;16450;50.288;10.966;2024-01-30T15:46:47;31.43;;;17.73;;
29500;SDS011;16450;50.288;10.966;2024-01-30T15:49:49;33.00;;;18.17;;
29500;SDS011;16450;50.288;10.966;2024-01-30T15:52:51;32.00;;;17.63;;
29500;SDS011;16450;50.288;10.966;2024-01-30T15:55:53;35.53;;;21.50;;
29500;SDS011;16450;50.288;10.966;2024-01-30T15:58:55;34.87;;;22.30;;
29500;SDS011;16450;50.288;10.966;2024-01-30T16:01:58;34.53;;;20.07;;
29500;SDS011;16450;50.288;10.966;2024-01-30T16:05:00;37.80;;;23.60;;
29500;SDS011;16450;50.288;10.966;2024-01-30T16:08:03;41.23;;;23.60;;
29500;SDS011;16450;50.288;10.966;2024-01-30T16:11:05;39.17;;;23.20;;
29500;SDS011;16450;50.288;10.966;2024-01-30T16:14:07;47.40;;;27.73;;
29500;SDS011;16450;50.288;10.966;2024-01-30T16:17:09;33.07;;;21.47;;
29500;SDS011;16450;50.288;10.966;2024-01-30T16:20:11;35.33;;;20.83;;
29500;SDS011;16450;50.288;10.966;2024-01-30T16:23:17;42.10;;;25.10;;
29500;SDS011;16450;50.288;10.966;2024-01-30T16:26:18;40.53;;;24.63;;
29500;SDS011;16450;50.288;10.966;2024-01-30T16:29:22;37.57;;;21.80;;
29500;SDS011;16450;50.288;10.966;2024-01-30T16:32:24;40.13;;;25.00;;
29500;SDS011;16450;50.288;10.966;2024-01-30T16:35:26;32.73;;;21.00;;
29500;SDS011;16450;50.288;10.966;2024-01-30T16:38:46;34.17;;;21.50;;
29500;SDS011;16450;50.288;10.966;2024-01-30T16:41:48;47.27;;;28.57;;
29500;SDS011;16450;50.288;10.966;2024-01-30T16:44:50;44.93;;;25.23;;
29500;SDS011;16450;50.288;10.966;2024-01-30T16:47:52;36.57;;;21.87;;
29500;SDS011;16450;50.288;10.966;2024-01-30T16:50:54;36.90;;;20.43;;
29500;SDS011;16450;50.288;10.966;2024-01-30T16:53:56;32.67;;;18.67;;
29500;SDS011;16450;50.288;10.966;2024-01-30T16:56:58;33.17;;;18.37;;
29500;SDS011;16450;50.288;10.966;2024-01-30T17:00:00;30.60;;;18.33;;
29500;SDS011;16450;50.288;10.966;2024-01-30T17:03:02;29.23;;;18.37;;
29500;SDS011;16450;50.288;10.966;2024-01-30T17:06:05;24.47;;;15.73;;
29500;SDS011;16450;50.288;10.966;2024-01-30T17:09:09;26.20;;;16.53;;
29500;SDS011;16450;50.288;10.966;2024-01-30T17:12:16;27.07;;;15.63;;
29500;SDS011;16450;50.288;10.966;2024-01-30T17:15:18;26.47;;;15.87;;
29500;SDS011;16450;50.288;10.966;2024-01-30T17:18:20;24.03;;;13.77;;
29500;SDS011;16450;50.288;10.966;2024-01-30T17:21:22;25.10;;;15.50;;
29500;SDS011;16450;50.288;10.966;2024-01-30T17:24:24;26.00;;;15.13;;
29500;SDS011;16450;50.288;10.966;2024-01-30T17:27:38;27.33;;;16.50;;
29500;SDS011;16450;50.288;10.966;2024-01-30T17:30:40;37.17;;;19.10;;
29500;SDS011;16450;50.288;10.966;2024-01-30T17:33:42;29.93;;;17.33;;
29500;SDS011;16450;50.288;10.966;2024-01-30T17:36:44;26.57;;;16.07;;
29500;SDS011;16450;50.288;10.966;2024-01-30T17:39:46;30.60;;;19.10;;
29500;SDS011;16450;50.288;10.966;2024-01-30T17:42:49;32.47;;;16.80;;
29500;SDS011;16450;50.288;10.966;2024-01-30T17:45:53;27.70;;;18.33;;